Veidnes — LLSD — position and weather

sailwx.info

Track history (hours):
 
Tides and Currents Weather Stations Pressure Air Temp Water Temp Dewpoint Dewpoint Depression Visibility Wind Speed Wind Dir Waves Ship Positions

Veidnes

Last reported at 2015-Sep-03 11:20 UTC. Time now 2015-Sep-03 21:26 UTC.
Position N 66°32' E 012°42'.

Length 50 m; draft 5 m.

Type: Cargo ship. MMSI: 259237000.

Date/timePositionNaut miles runAvg speedWind from/ knotsBaromVisibWave heightAir tempDewpointWater temp
2015-Sep-03 11:20N 66°32' E 012°42'8 9.5
2015-Sep-03 10:29N 66°24' E 012°43'7 0.4
2015-Sep-02 19:11N 66°20' E 012°57'710.0
2015-Sep-02 18:31N 66°27' E 012°59'3010.0
2015-Sep-02 15:33N 66°54' E 013°26'1010.5
2015-Sep-02 14:33N 67°02' E 013°45'1110.8
2015-Sep-02 13:33N 67°10' E 014°03'1111.1
2015-Sep-02 12:33N 67°19' E 014°19'1110.6
2015-Sep-02 11:34N 67°29' E 014°28'5 0.3
2015-Sep-01 20:14N 67°31' E 014°40'7 9.8
2015-Sep-01 19:33N 67°26' E 014°30'1010.1
2015-Sep-01 18:33N 67°18' E 014°16'6 6.4
2015-Sep-01 17:33N 67°16' E 014°32'5 2.6
2015-Sep-01 15:29N 67°19' E 014°44'0 0.0
2015-Sep-01 14:29N 67°19' E 014°44'4 4.6
2015-Sep-01 13:33N 67°16' E 014°35'6 5.6
2015-Sep-01 12:33N 67°17' E 014°21'8 7.8
2015-Sep-01 11:33N 67°24' E 014°27'1111.0
2015-Sep-01 10:33N 67°35' E 014°35'  
Track history (hours):
 
Tides and Currents Weather Stations Pressure Air Temp Water Temp Dewpoint Dewpoint Depression Visibility Wind Speed Wind Dir Waves Ship Positions

Veidnes

Last reported at 2015-Sep-03 11:20 UTC. Time now 2015-Sep-03 21:26 UTC.
Position N 66°32' E 012°42'.

Length 50 m; draft 5 m.

Type: Cargo ship. MMSI: 259237000.

Date/timePositionNaut miles runAvg speedWind from/ knotsBaromVisibWave heightAir tempDewpointWater temp
2015-Sep-03 11:20N 66°32' E 012°42'8 9.5
2015-Sep-03 10:29N 66°24' E 012°43'7 0.4
2015-Sep-02 19:11N 66°20' E 012°57'710.0
2015-Sep-02 18:31N 66°27' E 012°59'3010.0
2015-Sep-02 15:33N 66°54' E 013°26'1010.5
2015-Sep-02 14:33N 67°02' E 013°45'1110.8
2015-Sep-02 13:33N 67°10' E 014°03'1111.1
2015-Sep-02 12:33N 67°19' E 014°19'1110.6
2015-Sep-02 11:34N 67°29' E 014°28'5 0.3
2015-Sep-01 20:14N 67°31' E 014°40'7 9.8
2015-Sep-01 19:33N 67°26' E 014°30'1010.1
2015-Sep-01 18:33N 67°18' E 014°16'6 6.4
2015-Sep-01 17:33N 67°16' E 014°32'5 2.6
2015-Sep-01 15:29N 67°19' E 014°44'0 0.0
2015-Sep-01 14:29N 67°19' E 014°44'4 4.6
2015-Sep-01 13:33N 67°16' E 014°35'6 5.6
2015-Sep-01 12:33N 67°17' E 014°21'8 7.8
2015-Sep-01 11:33N 67°24' E 014°27'1111.0
2015-Sep-01 10:33N 67°35' E 014°35'  

Dump ship's entire track history